Time;durP1;ratioP1;P1;durP2;ratioP2;P2;SDS_P1;SDS_P2;PMS_P1;PMS_P2;Temp;Humidity;BMP_temperature;BMP_pressure;BME280_temperature;BME280_humidity;BME280_pressure;Samples;Min_cycle;Max_cycle;Signal;HPM_P1;HPM_P2
2023/01/07 00:01:17;;;;;;;1354.60;215.70;;;9.30;99.90;;;;;;5041257;28;20257;-51
2023/01/07 00:03:46;;;;;;;1260.67;229.90;;;9.30;99.90;;;;;;5038840;28;20249;-51
2023/01/07 00:06:16;;;;;;;774.47;139.77;;;9.30;99.90;;;;;;5042533;28;20309;-52
2023/01/07 00:08:48;;;;;;;617.63;122.77;;;9.30;99.90;;;;;;5044478;28;21019;-51
2023/01/07 00:11:18;;;;;;;725.87;119.27;;;9.40;99.90;;;;;;5044637;28;20285;-51
2023/01/07 00:13:48;;;;;;;803.40;116.50;;;9.40;99.90;;;;;;5043082;28;20295;-51
2023/01/07 00:16:17;;;;;;;1999.90;508.40;;;9.30;99.90;;;;;;5050079;28;20322;-51
2023/01/07 00:18:46;;;;;;;895.97;178.20;;;9.30;99.90;;;;;;5047864;28;20554;-52
2023/01/07 00:21:15;;;;;;;1322.50;231.37;;;9.30;99.90;;;;;;5031951;28;20230;-50
2023/01/07 00:23:46;;;;;;;1195.70;205.10;;;9.30;99.90;;;;;;5031609;28;20214;-52
2023/01/07 00:26:16;;;;;;;601.10;107.77;;;9.30;99.90;;;;;;5031552;28;20305;-51
2023/01/07 00:28:49;;;;;;;970.67;200.97;;;9.30;99.90;;;;;;5032211;28;20305;-50
2023/01/07 00:31:18;;;;;;;1194.63;167.67;;;9.30;99.90;;;;;;5031754;28;20225;-51
2023/01/07 00:34:05;;;;;;;844.03;139.90;;;9.30;99.90;;;;;;5029621;28;20303;-50
2023/01/07 00:36:36;;;;;;;518.60;91.73;;;9.30;99.90;;;;;;5028648;28;20240;-51
2023/01/07 00:39:07;;;;;;;1679.63;244.83;;;9.30;99.90;;;;;;5031629;28;20644;-51
2023/01/07 00:41:36;;;;;;;1347.13;196.80;;;9.30;99.90;;;;;;5037363;28;20245;-52
2023/01/07 00:44:05;;;;;;;1038.80;202.10;;;9.30;99.90;;;;;;5029673;28;20248;-52
2023/01/07 00:46:33;;;;;;;1606.83;223.53;;;9.30;99.90;;;;;;5031296;28;20309;-51
2023/01/07 00:49:02;;;;;;;518.30;116.17;;;9.30;99.90;;;;;;5031840;28;20326;-51
2023/01/07 00:51:30;;;;;;;696.90;137.70;;;9.30;99.90;;;;;;5031629;28;20329;-51
2023/01/07 00:53:58;;;;;;;719.37;104.73;;;9.40;99.90;;;;;;5031320;28;20220;-52
2023/01/07 00:56:27;;;;;;;379.00;84.30;;;9.40;99.90;;;;;;5031041;28;20322;-51
2023/01/07 00:58:55;;;;;;;1964.10;355.73;;;9.40;99.90;;;;;;5030761;28;20638;-52
2023/01/07 01:01:23;;;;;;;719.80;150.40;;;9.40;99.90;;;;;;5030720;28;20229;-52
2023/01/07 01:03:51;;;;;;;1033.37;199.97;;;9.30;99.90;;;;;;5031279;28;20216;-51
2023/01/07 01:06:19;;;;;;;1232.93;251.10;;;9.30;99.90;;;;;;5031278;28;20231;-52
2023/01/07 01:08:47;;;;;;;1057.40;174.40;;;9.30;99.90;;;;;;5039853;28;20312;-52
2023/01/07 01:11:16;;;;;;;1320.47;195.13;;;9.30;99.90;;;;;;5050091;28;20296;-52
2023/01/07 01:13:46;;;;;;;936.50;205.23;;;9.40;99.90;;;;;;5046558;28;20207;-51
2023/01/07 01:16:17;;;;;;;335.33;72.40;;;9.30;99.90;;;;;;5036697;28;20319;-52
2023/01/07 01:18:46;;;;;;;1497.90;264.97;;;9.40;99.90;;;;;;5031199;28;20204;-52
2023/01/07 01:21:15;;;;;;;391.50;80.90;;;9.40;99.90;;;;;;5030839;28;20206;-52
2023/01/07 01:23:44;;;;;;;1953.67;230.63;;;9.40;99.90;;;;;;5030147;28;20207;-50
2023/01/07 01:26:14;;;;;;;775.27;153.83;;;9.30;99.90;;;;;;5016765;28;20391;-51
2023/01/07 01:28:43;;;;;;;1949.40;303.83;;;9.30;99.90;;;;;;5030209;28;20671;-51
2023/01/07 01:31:13;;;;;;;1124.53;173.10;;;9.30;99.90;;;;;;5030687;28;20703;-52
2023/01/07 01:33:41;;;;;;;1999.90;420.47;;;9.30;99.90;;;;;;5028016;28;20459;-51
2023/01/07 01:36:11;;;;;;;1371.30;303.07;;;9.30;99.90;;;;;;5029978;28;20272;-51
2023/01/07 01:38:40;;;;;;;1266.60;219.80;;;9.30;99.90;;;;;;5036500;28;20202;-51
2023/01/07 01:41:09;;;;;;;1054.90;178.13;;;9.30;99.90;;;;;;5029436;28;20754;-51
2023/01/07 01:43:39;;;;;;;214.60;60.23;;;9.30;99.90;;;;;;5030350;28;20262;-51
2023/01/07 01:46:14;;;;;;;662.93;107.13;;;9.40;99.90;;;;;;5026763;28;20266;-53
2023/01/07 01:48:47;;;;;;;1216.70;209.37;;;9.30;99.90;;;;;;5030596;28;20202;-52
2023/01/07 01:51:17;;;;;;;1999.90;400.90;;;9.30;99.90;;;;;;5030624;28;20237;-51
2023/01/07 01:53:45;;;;;;;1038.23;168.03;;;9.30;99.90;;;;;;5030148;28;20245;-51
2023/01/07 01:56:19;;;;;;;1166.90;190.47;;;9.30;99.90;;;;;;5030322;28;20271;-51
2023/01/07 01:58:51;;;;;;;922.73;197.27;;;9.30;99.90;;;;;;5017195;28;20214;-52
2023/01/07 02:01:20;;;;;;;839.10;154.40;;;9.30;99.90;;;;;;5030091;28;20283;-51
2023/01/07 02:03:49;;;;;;;1057.33;202.43;;;9.30;99.90;;;;;;5030147;28;20893;-51
2023/01/07 02:06:22;;;;;;;1400.10;282.17;;;9.30;99.90;;;;;;5024649;28;20256;-51
2023/01/07 02:08:50;;;;;;;267.77;53.53;;;9.30;99.90;;;;;;5023418;28;20297;-51
2023/01/07 02:11:31;;;;;;;1643.43;301.30;;;9.40;99.90;;;;;;5021852;28;20223;-52
2023/01/07 02:14:12;;;;;;;579.90;94.53;;;9.30;99.90;;;;;;5028698;28;20731;-51
2023/01/07 02:16:50;;;;;;;353.13;77.80;;;9.30;99.90;;;;;;5017786;28;20281;-51
2023/01/07 02:20:03;;;;;;;1999.90;324.90;;;9.40;99.90;;;;;;5029617;28;20702;-52
2023/01/07 02:22:51;;;;;;;1129.10;227.50;;;9.30;99.90;;;;;;4987094;28;20308;-52
2023/01/07 02:25:57;;;;;;;1902.37;369.13;;;9.30;99.90;;;;;;5019103;28;20557;-52
2023/01/07 02:29:02;;;;;;;294.93;67.10;;;9.30;99.90;;;;;;5026154;28;20234;-52
2023/01/07 02:32:04;;;;;;;712.03;151.40;;;9.30;99.90;;;;;;5028394;28;20309;-51
2023/01/07 02:34:40;;;;;;;1226.63;159.00;;;9.30;99.90;;;;;;5027112;28;20237;-52
2023/01/07 02:37:15;;;;;;;1131.27;285.63;;;9.30;99.90;;;;;;5029347;28;20318;-52
2023/01/07 02:39:54;;;;;;;346.93;80.63;;;9.30;99.90;;;;;;5034053;28;20201;-52
2023/01/07 02:42:32;;;;;;;1235.83;206.73;;;9.30;99.90;;;;;;5017441;28;20692;-51
2023/01/07 02:45:07;;;;;;;667.97;138.50;;;9.30;99.90;;;;;;5029059;28;20666;-52
2023/01/07 02:47:39;;;;;;;601.37;120.37;;;9.30;99.90;;;;;;5026577;28;20262;-51
2023/01/07 02:50:08;;;;;;;356.23;72.20;;;9.30;99.90;;;;;;5025405;28;20310;-53
2023/01/07 02:52:37;;;;;;;1538.37;281.50;;;9.30;99.90;;;;;;5028862;28;20574;-52
2023/01/07 02:55:08;;;;;;;579.93;102.47;;;9.30;99.90;;;;;;5029413;28;20252;-51
2023/01/07 02:58:02;;;;;;;665.40;164.17;;;9.30;99.90;;;;;;5019421;28;20876;-52
2023/01/07 03:00:48;;;;;;;1506.60;252.67;;;9.30;99.90;;;;;;5028637;28;20785;-51
2023/01/07 03:03:41;;;;;;;955.87;159.10;;;9.30;99.90;;;;;;5028796;28;20214;-51
2023/01/07 03:06:22;;;;;;;1312.93;193.13;;;9.30;99.90;;;;;;5024929;28;20253;-50
2023/01/07 03:09:02;;;;;;;1854.77;319.07;;;9.20;99.90;;;;;;5028616;28;20225;-52
2023/01/07 03:11:39;;;;;;;558.83;123.33;;;9.20;99.90;;;;;;5029018;28;20325;-52
2023/01/07 03:14:14;;;;;;;510.63;95.43;;;9.20;99.90;;;;;;5027334;28;20300;-53
2023/01/07 03:16:45;;;;;;;1258.53;193.70;;;9.20;99.90;;;;;;5028935;28;20257;-51
2023/01/07 03:19:18;;;;;;;1999.90;405.63;;;9.20;99.90;;;;;;5028808;28;20705;-51
2023/01/07 03:21:47;;;;;;;334.37;72.73;;;9.20;99.90;;;;;;5028983;28;20241;-51
2023/01/07 03:24:17;;;;;;;787.93;129.40;;;9.20;99.90;;;;;;5028848;28;20297;-51
2023/01/07 03:26:48;;;;;;;1239.00;207.43;;;9.20;99.90;;;;;;5028905;28;20258;-51
2023/01/07 03:29:18;;;;;;;831.47;148.57;;;9.20;99.90;;;;;;5026517;28;20210;-51
2023/01/07 03:31:53;;;;;;;1770.43;260.60;;;9.20;99.90;;;;;;5028089;28;20244;-51
2023/01/07 03:34:25;;;;;;;1667.67;263.27;;;9.20;99.90;;;;;;5026675;28;20292;-52
2023/01/07 03:36:57;;;;;;;700.47;142.87;;;9.20;99.90;;;;;;5028079;28;20275;-52
2023/01/07 03:39:28;;;;;;;1048.60;206.07;;;9.20;99.90;;;;;;5024195;28;20249;-51
2023/01/07 03:44:42;;;;;;;1999.90;451.87;;;9.20;99.90;;;;;;5032953;28;20270;-52
2023/01/07 03:47:11;;;;;;;1229.67;204.53;;;9.10;99.90;;;;;;5032964;28;20314;-52
2023/01/07 03:49:40;;;;;;;670.27;169.80;;;9.10;99.90;;;;;;5033137;28;20303;-51
2023/01/07 03:52:08;;;;;;;1462.80;252.73;;;9.10;99.90;;;;;;5032305;28;20314;-51
2023/01/07 03:54:36;;;;;;;787.80;120.07;;;9.20;99.90;;;;;;5033291;28;20246;-52
2023/01/07 03:57:04;;;;;;;1950.20;352.80;;;9.10;99.90;;;;;;5032377;28;20709;-52
2023/01/07 03:59:32;;;;;;;1999.90;361.53;;;9.10;99.90;;;;;;5031330;28;20280;-51
2023/01/07 04:02:00;;;;;;;562.77;112.67;;;9.10;99.90;;;;;;5032586;28;20352;-52
2023/01/07 04:04:28;;;;;;;1771.30;327.10;;;9.10;99.90;;;;;;5032038;28;20838;-50
2023/01/07 04:06:58;;;;;;;807.93;146.17;;;9.10;99.90;;;;;;5032277;28;20230;-51
2023/01/07 04:09:26;;;;;;;1013.53;152.47;;;9.10;99.90;;;;;;5031616;28;20452;-50
2023/01/07 04:11:54;;;;;;;393.40;91.60;;;9.10;99.90;;;;;;5021425;28;20264;-51
2023/01/07 04:14:22;;;;;;;874.80;171.03;;;9.10;99.90;;;;;;5031570;28;20238;-52
2023/01/07 04:16:50;;;;;;;1302.70;231.77;;;9.10;99.90;;;;;;5027897;28;20258;-52
2023/01/07 04:19:19;;;;;;;560.07;132.43;;;9.10;99.90;;;;;;5029897;28;20206;-51
2023/01/07 04:21:47;;;;;;;1737.10;394.50;;;9.10;99.90;;;;;;5022795;28;20695;-52
2023/01/07 04:24:17;;;;;;;749.93;129.47;;;9.10;99.90;;;;;;5031896;28;20201;-51
2023/01/07 04:26:45;;;;;;;1052.80;152.60;;;9.10;99.90;;;;;;5032090;28;20265;-52
2023/01/07 04:29:13;;;;;;;904.67;154.47;;;9.10;99.90;;;;;;5031865;28;20245;-51
2023/01/07 04:31:41;;;;;;;1999.90;417.17;;;9.00;99.90;;;;;;5031708;28;20259;-52
2023/01/07 04:34:09;;;;;;;854.93;151.03;;;9.00;99.90;;;;;;5029870;28;20265;-53
2023/01/07 04:36:37;;;;;;;1400.83;206.67;;;9.00;99.90;;;;;;5031638;28;20230;-52
2023/01/07 04:39:05;;;;;;;388.73;100.97;;;9.00;99.90;;;;;;5031249;28;20215;-52
2023/01/07 04:41:34;;;;;;;1979.67;301.57;;;9.00;99.90;;;;;;5030588;28;20248;-52
2023/01/07 04:44:02;;;;;;;1988.97;266.20;;;9.00;99.90;;;;;;5031443;28;20206;-50
2023/01/07 04:46:31;;;;;;;614.73;87.27;;;9.00;99.90;;;;;;5031092;28;20261;-51
2023/01/07 04:48:59;;;;;;;400.87;71.97;;;9.00;99.90;;;;;;5031914;28;20245;-52
2023/01/07 04:51:27;;;;;;;640.63;124.47;;;9.00;99.90;;;;;;5031629;28;20348;-51
2023/01/07 04:53:56;;;;;;;1952.57;310.33;;;9.00;99.90;;;;;;5024001;28;20316;-52
2023/01/07 04:56:24;;;;;;;1050.77;190.37;;;9.00;99.90;;;;;;5030970;28;20258;-51
2023/01/07 04:58:53;;;;;;;396.33;100.30;;;9.00;99.90;;;;;;5031375;28;20204;-51
2023/01/07 05:01:21;;;;;;;1381.13;182.27;;;9.00;99.90;;;;;;5026809;28;20203;-51
2023/01/07 05:03:50;;;;;;;1170.27;210.00;;;9.00;99.90;;;;;;5027925;28;20217;-51
2023/01/07 05:06:18;;;;;;;845.47;102.20;;;9.00;99.90;;;;;;5031294;28;20249;-51
2023/01/07 05:08:46;;;;;;;1481.87;241.93;;;9.00;99.90;;;;;;5030890;28;20256;-52
2023/01/07 05:11:20;;;;;;;1011.37;152.87;;;9.00;99.90;;;;;;5031137;28;20319;-52
2023/01/07 05:13:49;;;;;;;1098.03;182.87;;;9.00;99.90;;;;;;5028271;28;20294;-52
2023/01/07 05:16:18;;;;;;;1516.03;213.63;;;9.00;99.90;;;;;;5030948;28;20763;-51
2023/01/07 05:18:46;;;;;;;394.93;108.33;;;9.00;99.90;;;;;;5030877;28;20221;-51
2023/01/07 05:21:14;;;;;;;918.07;137.70;;;9.00;99.90;;;;;;5031422;28;20241;-51
2023/01/07 05:23:42;;;;;;;1211.73;206.03;;;9.00;99.90;;;;;;5030502;28;20297;-51
2023/01/07 05:26:10;;;;;;;1999.90;391.37;;;9.00;99.90;;;;;;5030723;28;20317;-51
2023/01/07 05:28:38;;;;;;;1874.50;315.70;;;9.00;99.90;;;;;;5030790;28;20251;-51
2023/01/07 05:31:06;;;;;;;1906.70;321.50;;;9.00;99.90;;;;;;5030929;28;20226;-51
2023/01/07 05:33:36;;;;;;;1899.27;275.03;;;9.00;99.90;;;;;;5030445;28;20268;-51
2023/01/07 05:36:04;;;;;;;1999.90;322.50;;;9.00;99.90;;;;;;5029041;28;20294;-51
2023/01/07 05:38:32;;;;;;;1999.47;305.23;;;8.90;99.90;;;;;;5030236;28;20252;-51
2023/01/07 05:41:00;;;;;;;1240.90;228.47;;;8.90;99.90;;;;;;5029957;28;20297;-51
2023/01/07 05:43:28;;;;;;;1999.90;420.60;;;8.90;99.90;;;;;;5030077;28;20241;-51
2023/01/07 05:45:57;;;;;;;1999.90;345.13;;;8.90;99.90;;;;;;5030161;28;20302;-51
2023/01/07 05:48:26;;;;;;;1768.50;263.33;;;8.90;99.90;;;;;;5030417;28;20206;-51
2023/01/07 05:50:55;;;;;;;689.00;120.20;;;8.90;99.90;;;;;;5030326;28;20225;-51
2023/01/07 05:53:23;;;;;;;1999.90;354.77;;;8.90;99.90;;;;;;5029934;28;20213;-51
2023/01/07 05:55:55;;;;;;;1999.90;400.53;;;8.90;99.90;;;;;;5029910;28;20238;-51
2023/01/07 05:58:24;;;;;;;1587.60;224.80;;;8.90;99.90;;;;;;5030379;28;20726;-51
2023/01/07 06:00:52;;;;;;;1196.03;185.70;;;8.90;99.90;;;;;;5023563;28;20236;-51
2023/01/07 06:03:21;;;;;;;1882.03;242.23;;;9.00;99.90;;;;;;5030155;28;20209;-51
2023/01/07 06:05:49;;;;;;;1999.90;385.83;;;8.90;99.90;;;;;;5029863;28;20264;-51
2023/01/07 06:08:18;;;;;;;565.10;102.57;;;8.90;99.90;;;;;;5029734;28;20213;-51
2023/01/07 06:10:46;;;;;;;1529.13;228.83;;;8.90;99.90;;;;;;5030148;28;20237;-51
2023/01/07 06:13:14;;;;;;;842.20;139.30;;;9.00;99.90;;;;;;5027929;28;20774;-50
2023/01/07 06:15:42;;;;;;;1999.90;319.30;;;8.90;99.90;;;;;;5029831;28;20674;-51
2023/01/07 06:18:10;;;;;;;1999.90;274.57;;;8.90;99.90;;;;;;5028965;28;20234;-51
2023/01/07 06:20:38;;;;;;;1999.90;621.33;;;8.90;99.90;;;;;;5029698;28;20230;-51
2023/01/07 06:23:06;;;;;;;1971.10;336.07;;;8.90;99.90;;;;;;5029348;28;20237;-52
2023/01/07 06:25:36;;;;;;;1587.00;243.43;;;8.90;99.90;;;;;;5027797;28;20240;-51
2023/01/07 06:28:04;;;;;;;1160.43;166.40;;;8.90;99.90;;;;;;5029656;28;20309;-51
2023/01/07 06:30:32;;;;;;;765.70;107.57;;;8.90;99.90;;;;;;5021222;28;20235;-51
2023/01/07 06:33:00;;;;;;;987.47;144.17;;;9.00;99.90;;;;;;5028925;28;20317;-52
2023/01/07 06:35:28;;;;;;;580.03;106.53;;;9.00;99.90;;;;;;5027582;28;20302;-51
2023/01/07 06:37:56;;;;;;;1001.97;196.70;;;9.00;99.90;;;;;;5028782;28;20591;-52
2023/01/07 06:40:24;;;;;;;1999.90;472.20;;;8.90;99.90;;;;;;5025814;28;20294;-52
2023/01/07 06:42:54;;;;;;;1178.37;219.47;;;8.90;99.90;;;;;;5029090;28;20897;-51
2023/01/07 06:45:22;;;;;;;1061.17;221.23;;;8.90;99.90;;;;;;5029054;28;20270;-52
2023/01/07 06:47:50;;;;;;;293.33;72.90;;;8.90;99.90;;;;;;5029414;28;20766;-51
2023/01/07 06:50:18;;;;;;;1734.57;312.80;;;8.90;99.90;;;;;;5029279;28;20298;-52
2023/01/07 06:52:46;;;;;;;723.73;144.87;;;8.90;99.90;;;;;;5028965;28;20642;-51
2023/01/07 06:55:14;;;;;;;1169.87;233.60;;;8.90;99.90;;;;;;5029377;28;20249;-53
2023/01/07 06:57:42;;;;;;;1270.40;194.93;;;8.90;99.90;;;;;;5029421;28;20265;-51
2023/01/07 07:00:13;;;;;;;1474.27;301.70;;;8.90;99.90;;;;;;5029298;28;20296;-52
2023/01/07 07:02:41;;;;;;;555.30;110.47;;;8.90;99.90;;;;;;5029231;28;20229;-52
2023/01/07 07:05:10;;;;;;;1999.90;387.80;;;8.90;99.90;;;;;;5029206;28;20217;-52
2023/01/07 07:07:38;;;;;;;1866.00;276.97;;;8.90;99.90;;;;;;5028921;28;20339;-51
2023/01/07 07:10:07;;;;;;;1785.47;303.30;;;8.90;99.90;;;;;;5029302;28;20221;-52
2023/01/07 07:12:36;;;;;;;820.80;138.00;;;8.90;99.90;;;;;;5028395;28;20262;-52
2023/01/07 07:15:05;;;;;;;1204.57;225.37;;;8.90;99.90;;;;;;5041390;28;20209;-52
2023/01/07 07:17:35;;;;;;;792.57;119.87;;;8.90;99.90;;;;;;5045034;28;20260;-51
2023/01/07 07:20:04;;;;;;;328.47;72.20;;;9.00;99.90;;;;;;5046351;28;20236;-51
2023/01/07 07:22:32;;;;;;;606.70;95.57;;;8.90;99.90;;;;;;5046626;28;20722;-51
2023/01/07 07:25:00;;;;;;;741.07;195.23;;;8.90;99.90;;;;;;5039163;28;20317;-52
2023/01/07 07:27:28;;;;;;;383.93;72.17;;;9.00;99.90;;;;;;5032951;28;20226;-51
2023/01/07 07:29:56;;;;;;;382.13;89.20;;;8.90;99.90;;;;;;5028716;28;20903;-51
2023/01/07 07:32:27;;;;;;;732.93;140.47;;;8.90;99.90;;;;;;5028552;28;20316;-52
2023/01/07 07:34:57;;;;;;;404.33;117.27;;;9.00;99.90;;;;;;5027883;28;20224;-52
2023/01/07 07:37:25;;;;;;;448.37;104.23;;;8.90;99.90;;;;;;5027000;28;20976;-53
2023/01/07 07:39:53;;;;;;;864.77;202.50;;;8.90;99.90;;;;;;5026681;28;20321;-51
2023/01/07 07:42:21;;;;;;;510.63;89.43;;;8.90;99.90;;;;;;5029789;28;20232;-52
2023/01/07 07:44:49;;;;;;;405.77;105.17;;;8.90;99.90;;;;;;5037263;28;20240;-53
2023/01/07 07:47:18;;;;;;;459.97;131.37;;;8.90;99.90;;;;;;5046720;28;20777;-51
2023/01/07 07:49:46;;;;;;;505.57;126.60;;;8.90;99.90;;;;;;5047162;28;20252;-52
2023/01/07 07:52:16;;;;;;;338.37;108.63;;;8.90;99.90;;;;;;5042766;28;20202;-51
2023/01/07 07:54:44;;;;;;;717.13;117.03;;;8.90;99.90;;;;;;5021793;28;20281;-52
2023/01/07 07:57:12;;;;;;;49.77;36.23;;;9.00;99.90;;;;;;5030196;28;20320;-51
2023/01/07 07:59:40;;;;;;;181.93;64.77;;;9.10;99.90;;;;;;5036871;28;20233;-52
2023/01/07 08:02:12;;;;;;;562.90;133.20;;;9.10;99.90;;;;;;5039198;28;20208;-51
2023/01/07 08:04:40;;;;;;;427.90;139.40;;;9.10;99.90;;;;;;5043820;28;20722;-51
2023/01/07 08:07:09;;;;;;;471.50;129.30;;;9.00;99.90;;;;;;5043463;28;20229;-52
2023/01/07 08:09:39;;;;;;;900.57;185.77;;;9.10;99.90;;;;;;5036986;28;20213;-51
2023/01/07 08:12:07;;;;;;;615.27;132.67;;;9.00;99.90;;;;;;5029233;28;20236;-52
2023/01/07 08:14:36;;;;;;;1228.93;254.43;;;9.00;99.90;;;;;;5042944;28;20260;-51
2023/01/07 08:17:04;;;;;;;1320.50;249.13;;;8.90;99.90;;;;;;5036488;28;20351;-52
2023/01/07 08:19:32;;;;;;;1699.80;321.23;;;9.00;99.90;;;;;;5027194;28;20217;-52
2023/01/07 08:22:00;;;;;;;806.97;115.37;;;8.90;99.90;;;;;;5020627;28;20232;-52
2023/01/07 08:24:28;;;;;;;1653.20;244.13;;;8.90;99.90;;;;;;5026666;28;20294;-51
2023/01/07 08:26:57;;;;;;;719.73;110.50;;;8.90;99.90;;;;;;5025580;28;20252;-52
2023/01/07 08:29:25;;;;;;;646.57;138.37;;;8.80;99.90;;;;;;5028903;28;20358;-51
2023/01/07 08:31:54;;;;;;;645.87;165.73;;;8.90;99.90;;;;;;5031969;28;20241;-52
2023/01/07 08:34:22;;;;;;;823.13;215.13;;;8.90;99.90;;;;;;5026795;28;20302;-51
2023/01/07 08:36:51;;;;;;;1101.90;169.97;;;9.00;99.90;;;;;;5031544;28;20689;-51
2023/01/07 08:39:20;;;;;;;534.60;128.53;;;9.00;99.90;;;;;;5026726;28;20237;-51
2023/01/07 08:41:48;;;;;;;983.77;231.97;;;9.00;99.90;;;;;;5031486;28;20671;-52
2023/01/07 08:44:17;;;;;;;1123.40;181.83;;;9.00;99.90;;;;;;5031248;28;20281;-51
2023/01/07 08:46:45;;;;;;;1125.47;238.27;;;9.00;99.90;;;;;;5031456;28;20313;-52
2023/01/07 08:49:13;;;;;;;727.37;115.40;;;9.00;99.90;;;;;;5031452;28;20252;-52
2023/01/07 08:51:41;;;;;;;1086.10;245.27;;;9.00;99.90;;;;;;5031594;28;20289;-53
2023/01/07 08:54:09;;;;;;;1999.90;501.03;;;9.00;99.90;;;;;;5031090;28;20222;-52
2023/01/07 08:56:37;;;;;;;710.13;190.90;;;9.00;99.90;;;;;;5030692;28;20257;-52
2023/01/07 08:59:06;;;;;;;1929.70;338.33;;;9.00;99.90;;;;;;5030588;28;20214;-52
2023/01/07 09:01:35;;;;;;;457.70;103.40;;;9.00;99.90;;;;;;5030515;28;20235;-51
2023/01/07 09:04:04;;;;;;;1371.73;237.20;;;9.10;99.90;;;;;;5023162;28;20281;-52
2023/01/07 09:06:32;;;;;;;892.40;198.13;;;9.10;99.90;;;;;;5028358;28;20226;-53
2023/01/07 09:09:00;;;;;;;452.93;114.30;;;9.10;99.90;;;;;;5026559;28;20247;-52
2023/01/07 09:11:28;;;;;;;902.70;162.60;;;9.10;99.90;;;;;;5030304;28;20643;-52
2023/01/07 09:13:56;;;;;;;1127.80;181.10;;;9.10;99.90;;;;;;5029601;28;20232;-52
2023/01/07 09:16:24;;;;;;;1178.77;188.80;;;9.20;99.90;;;;;;5030763;28;20258;-51
2023/01/07 09:18:54;;;;;;;1999.90;468.60;;;9.20;99.90;;;;;;5030680;28;20256;-51
2023/01/07 09:21:22;;;;;;;887.33;160.47;;;9.20;99.90;;;;;;5030684;28;20250;-52
2023/01/07 09:23:50;;;;;;;1201.23;253.40;;;9.20;99.90;;;;;;5030166;28;20244;-51
2023/01/07 09:26:18;;;;;;;616.13;119.83;;;9.20;99.90;;;;;;5025879;28;20317;-52
2023/01/07 09:28:46;;;;;;;1533.60;328.07;;;9.20;99.90;;;;;;5029015;28;20283;-51
2023/01/07 09:31:15;;;;;;;571.53;115.63;;;9.30;99.90;;;;;;5030066;28;20301;-51
2023/01/07 09:33:43;;;;;;;1435.77;262.57;;;9.20;99.90;;;;;;5028846;28;20221;-51
2023/01/07 09:36:12;;;;;;;303.63;84.80;;;9.30;99.90;;;;;;5029773;28;20949;-51
2023/01/07 09:38:40;;;;;;;207.70;47.07;;;9.30;99.90;;;;;;5030761;28;20315;-52
2023/01/07 09:41:24;;;;;;;1283.53;241.83;;;9.30;99.90;;;;;;5030136;28;20667;-52
2023/01/07 09:43:56;;;;;;;486.10;92.77;;;9.30;99.90;;;;;;5018969;28;20289;-51
2023/01/07 09:46:29;;;;;;;1999.90;285.07;;;9.30;99.90;;;;;;5029153;28;20313;-51
2023/01/07 09:49:01;;;;;;;1159.83;216.30;;;9.30;99.90;;;;;;5029520;28;20238;-51
2023/01/07 09:51:36;;;;;;;861.97;124.90;;;9.30;99.90;;;;;;5030574;28;20210;-52
2023/01/07 09:54:08;;;;;;;1675.47;268.03;;;9.30;99.90;;;;;;5028520;28;20245;-51
2023/01/07 09:56:39;;;;;;;819.97;111.53;;;9.30;99.90;;;;;;5030480;28;20260;-51
2023/01/07 09:59:10;;;;;;;1160.40;219.67;;;9.30;99.90;;;;;;5029099;28;20959;-52
2023/01/07 10:01:44;;;;;;;889.37;179.07;;;9.30;99.90;;;;;;5030221;28;20743;-51
2023/01/07 10:04:24;;;;;;;1372.30;255.40;;;9.30;99.90;;;;;;5025114;28;20251;-51
2023/01/07 10:07:02;;;;;;;1942.33;346.57;;;9.40;99.90;;;;;;5026263;28;20891;-51
2023/01/07 10:09:41;;;;;;;1999.90;326.97;;;9.40;99.90;;;;;;5018351;28;20241;-51
2023/01/07 10:12:18;;;;;;;631.37;151.67;;;9.30;99.90;;;;;;5025661;28;20216;-51
2023/01/07 10:15:03;;;;;;;935.40;134.37;;;9.30;99.90;;;;;;5027872;28;20253;-51
2023/01/07 10:17:45;;;;;;;1118.43;228.80;;;9.30;99.90;;;;;;5024740;28;20324;-51
2023/01/07 10:20:20;;;;;;;791.20;140.73;;;9.40;99.90;;;;;;5031094;28;20235;-50
2023/01/07 10:22:54;;;;;;;1328.77;198.10;;;9.40;99.90;;;;;;5026411;28;20651;-51
2023/01/07 10:25:27;;;;;;;1161.53;176.77;;;9.50;99.90;;;;;;5026331;28;20240;-51
2023/01/07 10:28:00;;;;;;;1999.90;442.93;;;9.50;99.90;;;;;;5026746;28;20772;-52
2023/01/07 10:30:31;;;;;;;1999.90;709.43;;;9.40;99.90;;;;;;5024922;28;20234;-51
2023/01/07 10:33:11;;;;;;;1999.90;493.53;;;9.50;99.90;;;;;;5024440;28;20207;-51
2023/01/07 10:35:40;;;;;;;1999.90;492.67;;;9.50;99.90;;;;;;5024433;28;20317;-52
2023/01/07 10:38:18;;;;;;;1999.90;638.23;;;9.40;99.90;;;;;;5023771;28;20250;-52
2023/01/07 10:40:51;;;;;;;1999.90;358.80;;;9.50;99.90;;;;;;5021784;28;20252;-51
2023/01/07 10:43:35;;;;;;;1999.90;410.40;;;9.50;99.90;;;;;;5029339;28;20237;-52
2023/01/07 10:46:28;;;;;;;1444.00;261.03;;;9.50;99.90;;;;;;5029044;28;20579;-51
2023/01/07 10:49:12;;;;;;;1999.90;500.17;;;9.50;99.90;;;;;;5018415;28;20301;-52
2023/01/07 10:52:16;;;;;;;1999.90;376.27;;;9.50;99.90;;;;;;5024072;28;20233;-51
2023/01/07 10:55:19;;;;;;;1999.90;405.87;;;9.50;99.90;;;;;;5026079;28;20260;-51
2023/01/07 10:57:48;;;;;;;1999.90;492.70;;;9.40;99.90;;;;;;5038493;28;20264;-51
2023/01/07 11:00:18;;;;;;;1999.90;643.63;;;9.40;99.90;;;;;;5031593;28;20198;-51
2023/01/07 11:02:50;;;;;;;1999.90;554.80;;;9.40;99.90;;;;;;5028894;28;20294;-52
2023/01/07 11:05:20;;;;;;;1999.90;466.63;;;9.40;99.90;;;;;;5029012;28;20202;-51
2023/01/07 11:07:50;;;;;;;1999.90;525.70;;;9.50;99.90;;;;;;5028871;28;20662;-51
2023/01/07 11:10:23;;;;;;;1999.90;515.63;;;9.50;99.90;;;;;;5029356;28;20255;-51
2023/01/07 11:12:54;;;;;;;1660.77;290.07;;;9.50;99.90;;;;;;5029201;28;20249;-51
2023/01/07 11:15:25;;;;;;;1999.90;716.30;;;9.40;99.90;;;;;;5028901;28;20225;-51
2023/01/07 11:17:58;;;;;;;1999.90;537.57;;;9.40;99.90;;;;;;5029404;28;20265;-51
2023/01/07 11:20:47;;;;;;;1999.90;494.10;;;9.40;99.90;;;;;;5027721;28;20206;-51
2023/01/07 11:23:26;;;;;;;1999.90;594.47;;;9.40;99.90;;;;;;5023804;28;20213;-51
2023/01/07 11:26:09;;;;;;;1999.90;461.50;;;9.40;99.90;;;;;;5027317;28;20203;-52
2023/01/07 11:28:42;;;;;;;1999.90;765.73;;;9.40;99.90;;;;;;5038409;28;20260;-52
2023/01/07 11:31:10;;;;;;;1999.90;593.57;;;9.30;99.90;;;;;;5022962;28;20256;-51
2023/01/07 11:33:41;;;;;;;1999.90;824.27;;;9.30;99.90;;;;;;5026018;28;20679;-51
2023/01/07 11:36:39;;;;;;;1999.90;638.50;;;9.30;99.90;;;;;;5037221;28;20240;-51
2023/01/07 11:39:10;;;;;;;1999.90;327.60;;;9.30;99.90;;;;;;5045676;28;20206;-51
2023/01/07 11:41:51;;;;;;;1999.90;579.03;;;9.30;99.90;;;;;;5046924;28;20320;-51
2023/01/07 11:44:19;;;;;;;1999.90;738.43;;;9.40;99.90;;;;;;5043698;28;20703;-51
2023/01/07 11:46:48;;;;;;;1999.90;459.97;;;9.30;99.90;;;;;;5046074;28;20267;-52
2023/01/07 11:49:25;;;;;;;1999.90;564.70;;;9.30;99.90;;;;;;5044120;28;20642;-51
2023/01/07 11:51:53;;;;;;;1999.90;574.50;;;9.40;99.90;;;;;;5044905;28;20251;-53
2023/01/07 11:54:24;;;;;;;1999.90;509.20;;;9.40;99.90;;;;;;5044254;28;20251;-51
2023/01/07 11:57:10;;;;;;;1999.90;503.37;;;9.30;99.90;;;;;;5035465;28;20235;-51
2023/01/07 11:59:39;;;;;;;1999.90;752.07;;;9.30;99.90;;;;;;5019321;28;20273;-51
2023/01/07 12:02:24;;;;;;;1999.90;407.90;;;9.30;99.90;;;;;;5027310;28;20351;-51
2023/01/07 12:04:52;;;;;;;1999.90;399.60;;;9.30;99.90;;;;;;5030988;28;20202;-51
2023/01/07 12:07:22;;;;;;;1999.90;582.07;;;9.30;99.90;;;;;;5031256;28;20313;-51
2023/01/07 12:09:50;;;;;;;1999.90;392.27;;;9.30;99.90;;;;;;5031078;28;20664;-50
2023/01/07 12:12:33;;;;;;;1999.90;885.50;;;9.30;99.90;;;;;;5028545;28;20241;-52
2023/01/07 12:15:05;;;;;;;1999.90;340.07;;;9.20;99.90;;;;;;5030932;28;20226;-51
2023/01/07 12:17:35;;;;;;;1999.90;446.63;;;9.20;99.90;;;;;;5031762;28;20246;-52
2023/01/07 12:20:36;;;;;;;1999.90;840.70;;;9.30;99.90;;;;;;5029821;28;20209;-52
2023/01/07 12:23:23;;;;;;;1999.90;737.10;;;9.20;99.90;;;;;;5031398;28;20245;-51
2023/01/07 12:26:01;;;;;;;1999.90;618.87;;;9.20;99.90;;;;;;5031560;28;20244;-52
2023/01/07 12:28:48;;;;;;;1999.90;449.20;;;9.20;99.90;;;;;;5025721;28;20214;-52
2023/01/07 12:31:26;;;;;;;1999.90;403.37;;;9.20;99.90;;;;;;5031507;28;20731;-51
2023/01/07 12:34:07;;;;;;;1999.90;626.20;;;9.20;99.90;;;;;;5031773;28;20214;-52
2023/01/07 12:36:46;;;;;;;1999.90;938.97;;;9.30;99.90;;;;;;5030919;28;20767;-51
2023/01/07 12:39:19;;;;;;;1380.80;208.77;;;9.30;99.90;;;;;;5030956;28;20247;-52